TimeAKDT,TemperatureF,Dew PointF,Humidity,Sea Level PressureIn,VisibilityMPH,Wind Direction,Wind SpeedMPH,Gust SpeedMPH,PrecipitationIn,Events,Conditions,WindDirDegrees,DateUTC
12:53 AM,52.0,44.1,74,29.93,10.0,Calm,Calm,-,N/A,,Clear,0,2013-07-06 08:53:00
1:53 AM,52.0,44.1,74,29.93,10.0,ENE,3.5,-,N/A,,Clear,70,2013-07-06 09:53:00
2:53 AM,50.0,44.1,80,29.92,10.0,East,4.6,-,N/A,,Clear,80,2013-07-06 10:53:00
3:53 AM,48.9,43.0,80,29.92,10.0,ENE,5.8,-,N/A,,Clear,70,2013-07-06 11:53:00
4:53 AM,50.0,44.1,80,29.91,10.0,East,6.9,-,N/A,,Clear,80,2013-07-06 12:53:00
5:53 AM,51.1,45.0,80,29.90,3.0,East,9.2,-,N/A,,Haze,90,2013-07-06 13:53:00
6:13 AM,51.8,44.6,76,29.88,2.5,East,10.4,-,N/A,,Haze,80,2013-07-06 14:13:00
6:53 AM,53.1,45.0,74,29.90,3.0,East,6.9,-,N/A,,Haze,80,2013-07-06 14:53:00
7:11 AM,53.6,44.6,72,29.88,2.5,East,8.1,-,N/A,,Haze,90,2013-07-06 15:11:00
7:53 AM,54.0,45.0,72,29.89,2.5,East,9.2,-,N/A,,Haze,80,2013-07-06 15:53:00
8:39 AM,57.2,46.4,67,29.87,3.0,East,9.2,-,N/A,,Haze,80,2013-07-06 16:39:00
8:53 AM,57.9,46.0,65,29.88,4.0,East,10.4,-,N/A,,Haze,80,2013-07-06 16:53:00
9:53 AM,61.0,46.0,58,29.88,7.0,East,9.2,-,N/A,,Clear,80,2013-07-06 17:53:00
10:53 AM,64.9,46.0,50,29.87,9.0,ENE,10.4,-,N/A,,Clear,60,2013-07-06 18:53:00
11:53 AM,66.0,45.0,47,29.86,10.0,East,6.9,-,N/A,,Partly Cloudy,100,2013-07-06 19:53:00
12:53 PM,69.1,42.1,38,29.84,10.0,Variable,5.8,-,N/A,,Scattered Clouds,0,2013-07-06 20:53:00
1:53 PM,68.0,42.1,39,29.83,10.0,South,6.9,-,N/A,,Overcast,180,2013-07-06 21:53:00
2:53 PM,71.1,42.1,35,29.82,10.0,South,11.5,17.3,N/A,,Mostly Cloudy,170,2013-07-06 22:53:00
3:53 PM,71.1,42.1,35,29.80,10.0,SSW,9.2,-,N/A,,Mostly Cloudy,210,2013-07-06 23:53:00
4:53 PM,72.0,41.0,33,29.78,10.0,South,12.7,-,N/A,,Clear,190,2013-07-07 00:53:00
5:53 PM,71.1,39.9,32,29.76,10.0,SSE,13.8,-,N/A,,Partly Cloudy,160,2013-07-07 01:53:00
6:53 PM,71.1,39.9,32,29.74,10.0,South,11.5,19.6,N/A,,Clear,170,2013-07-07 02:53:00
7:53 PM,71.1,39.9,32,29.73,10.0,South,12.7,21.9,N/A,,Clear,190,2013-07-07 03:53:00
8:53 PM,69.1,37.9,32,29.73,10.0,South,13.8,24.2,N/A,,Clear,180,2013-07-07 04:53:00
9:53 PM,66.9,39.9,37,29.72,10.0,South,8.1,-,N/A,,Clear,180,2013-07-07 05:53:00
10:53 PM,66.0,41.0,40,29.72,10.0,South,9.2,-,N/A,,Mostly Cloudy,190,2013-07-07 06:53:00
11:53 PM,63.0,42.1,46,29.72,10.0,SSW,5.8,-,N/A,,Mostly Cloudy,200,2013-07-07 07:53:00